W3EJE-13 Weather Reports


Display with metric or nautical units.
time (UTC)temp
F
wind
direction
speed
MPH
gust
MPH
rain 1hr
in
rain 24hr
in
rain mn
in
humidity
%
barometer
mb
20240612190408 74 249 2.0 2.0 0.00 0.00 0.00 50 1018.9
20240612185905 73 270 4.0 6.0 0.00 0.00 0.00 53 1019.2
20240612185404 74 288 7.0 8.0 0.00 0.00 0.00 56 1019.1
20240612184904 74 285 4.0 5.0 0.00 0.00 0.00 52 1019.7
20240612184402 73 244 3.0 5.0 0.00 0.00 0.00 56 1019.4
20240612183901 74 246 2.0 3.0 0.00 0.00 0.00 51 1019.5
20240612183358 73 296 5.0 6.0 0.00 0.00 0.00 55 1019.1
20240612182856 76 285 3.0 3.0 0.00 0.00 0.00 52 1019.5
20240612182355 73 218 1.0 1.0 0.00 0.00 0.00 49 1019.4
20240612181854 73 266 5.0 5.0 0.00 0.00 0.00 50 1019.5
20240612181347 73 261 2.0 2.0 0.00 0.00 0.00 48 1019.6
20240612180847 73 279 4.0 5.0 0.00 0.00 0.00 47 1019.9
20240612180346 73 228 1.0 1.0 0.00 0.00 0.00 49 1019.5
20240612175845 74 251 0.0 0.0 0.00 0.00 0.00 49 1019.8
20240612175344 74 267 1.0 1.0 0.00 0.00 0.00 49 1019.7
20240612174844 72 200 4.0 5.0 0.00 0.00 0.00 51 1019.7
20240612174342 72 259 2.0 3.0 0.00 0.00 0.00 52 1019.9
20240612173841 71 300 7.0 7.0 0.00 0.00 0.00 53 1020.0
20240612173341 71 252 1.0 1.0 0.00 0.00 0.00 50 1020.1
20240612172839 71 255 5.0 7.0 0.00 0.00 0.00 53 1019.9
20240612172335 72 253 2.0 3.0 0.00 0.00 0.00 48 1020.3
20240612171834 73 265 3.0 3.0 0.00 0.00 0.00 50 1020.1
20240612171333 73 176 1.0 2.0 0.00 0.00 0.00 47 1020.3
20240612170833 72 248 1.0 2.0 0.00 0.00 0.00 49 1020.2
20240612170332 71 281 1.0 2.0 0.00 0.00 0.00 50 1020.3
20240612165830 71 273 3.0 5.0 0.00 0.00 0.00 44 1020.3
20240612165329 71 269 8.0 9.0 0.00 0.00 0.00 53 1020.5
20240612164828 70 292 4.0 5.0 0.00 0.00 0.00 52 1020.3
20240612164326 71 306 2.0 3.0 0.00 0.00 0.00 49 1020.2
20240612163824 71 263 4.0 6.0 0.00 0.00 0.00 55 1020.5
20240612163324 71 1 6.0 8.0 0.00 0.00 0.00 52 1020.2
20240612162822 70 264 1.0 2.0 0.00 0.00 0.00 51 1020.4
20240612162321 69 256 6.0 8.0 0.00 0.00 0.00 52 1020.6
20240612161819 70 294 4.0 5.0 0.00 0.00 0.00 51 1020.4
20240612161316 70 243 0.0 1.0 0.00 0.00 0.00 52 1020.5
20240612160816 69 278 1.0 2.0 0.00 0.00 0.00 53 1020.7
20240612160315 70 315 5.0 6.0 0.00 0.00 0.00 53 1020.8
20240612155815 71 244 1.0 2.0 0.00 0.00 0.00 51 1020.6
20240612155313 69 291 2.0 2.0 0.00 0.00 0.00 55 1020.7
20240612154813 69 257 4.0 5.0 0.00 0.00 0.00 56 1020.7
20240612154312 70 222 0.0 1.0 0.00 0.00 0.00 52 1020.7
20240612153812 70 240 2.0 2.0 0.00 0.00 0.00 52 1020.4
20240612153310 68 238 2.0 3.0 0.00 0.00 0.00 54 1020.7
20240612152809 68 276 3.0 3.0 0.00 0.00 0.00 60 1020.9
20240612152307 68 315 4.0 6.0 0.00 0.00 0.00 57 1020.8
20240612151806 67 270 3.0 3.0 0.00 0.00 0.00 57 1020.7
20240612151305 68 254 3.0 3.0 0.00 0.00 0.00 59 1020.6
20240612150805 68 271 5.0 5.0 0.00 0.00 0.00 58 1020.9
20240612150304 68 308 3.0 3.0 0.00 0.00 0.00 56 1021.0
20240612145802 69 265 0.0 1.0 0.00 0.00 0.00 57 1020.6
20240612145301 67 222 0.0 1.0 0.00 0.00 0.00 58 1021.0
20240612144759 67 305 1.0 1.0 0.00 0.00 0.00 60 1020.9
20240612144255 67 248 2.0 3.0 0.00 0.00 0.00 65 1020.9
20240612143753 67 244 0.0 0.0 0.00 0.00 0.00 67 1021.2
20240612143254 66 297 0.0 0.0 0.00 0.00 0.00 69 1020.8
20240612142752 66 246 0.0 0.0 0.00 0.00 0.00 66 1020.9
20240612142252 65 263 0.0 0.0 0.00 0.00 0.00 67 1020.6
20240612141750 65 243 0.0 0.0 0.00 0.00 0.00 69 1020.7
20240612141247 64 248 0.0 0.0 0.00 0.00 0.00 69 1021.2
20240612140747 64 236 0.0 0.0 0.00 0.00 0.00 69 1020.9
20240612140245 63 259 0.0 0.0 0.00 0.00 0.00 73 1021.2
20240612135744 61 296 0.0 0.0 0.00 0.00 0.00 76 1021.0
20240612135243 61 292 0.0 0.0 0.00 0.00 0.00 81 1020.9
20240612134744 60 271 0.0 0.0 0.00 0.00 0.00 84 1020.9
20240612134240 59 258 0.0 0.0 0.00 0.00 0.00 85 1021.0
20240612133739 58 251 0.0 0.0 0.00 0.00 0.00 86 1021.2
20240612133238 57 272 0.0 0.0 0.00 0.00 0.00 88 1021.2
20240612132737 56 250 0.0 0.0 0.00 0.00 0.00 90 1020.9
20240612132236 55 248 0.0 0.0 0.00 0.00 0.00 90 1021.3
20240612131736 55 252 0.0 0.0 0.00 0.00 0.00 91 1021.0
20240612131229 54 261 0.0 0.0 0.00 0.00 0.00 92 1020.8
20240612130728 53 251 0.0 0.0 0.00 0.00 0.00 94 1020.9
20240612130227 52 269 0.0 0.0 0.00 0.00 0.00 95 1021.0
20240612125726 51 264 0.0 0.0 0.00 0.00 0.00 95 1020.9
20240612125225 51 247 0.0 0.0 0.00 0.00 0.00 97 1020.8
20240612124724 50 248 0.0 0.0 0.00 0.00 0.00 98 1021.0
20240612124222 49 248 0.0 0.0 0.00 0.00 0.00 99 1021.2
20240612123721 48 267 0.0 0.0 0.00 0.00 0.00 99 1021.0
20240612123220 48 250 0.0 0.0 0.00 0.00 0.00 99 1021.0
20240612122719 48 249 0.0 0.0 0.00 0.00 0.00 99 1021.3
20240612122217 48 248 0.0 0.0 0.00 0.00 0.00 99 1021.2
20240612121717 47 248 0.0 0.0 0.00 0.00 0.00 99 1021.2
20240612121216 46 256 0.0 0.0 0.00 0.00 0.00 99 1021.6
20240612120715 46 256 0.0 1.0 0.00 0.00 0.00 99 1021.5
20240612120213 46 248 0.0 0.0 0.00 0.00 0.00 99 1021.3
20240612115712 45 248 0.0 0.0 0.00 0.00 0.00 99 1021.2
20240612115209 45 266 0.0 0.0 0.00 0.00 0.00 99 1021.4
20240612114709 45 248 0.0 0.0 0.00 0.00 0.00 99 1021.2
20240612114207 45 245 0.0 0.0 0.00 0.00 0.00 99 1021.3
20240612113705 44 245 0.0 0.0 0.00 0.00 0.00 99 1021.3
20240612113204 44 246 0.0 0.0 0.00 0.00 0.00 99 1021.3
20240612112704 44 247 0.0 0.0 0.00 0.00 0.00 99 1021.4
20240612112202 44 246 0.0 0.0 0.00 0.00 0.00 99 1021.4
20240612111702 44 247 0.0 0.0 0.00 0.00 0.00 99 1021.3
20240612111201 44 246 0.0 0.0 0.00 0.00 0.00 99 1021.0
20240612110700 43 247 0.0 0.0 0.00 0.00 0.00 99 1021.4
20240612110159 43 245 0.0 0.0 0.00 0.00 0.00 99 1021.3
20240612105658 43 245 0.0 0.0 0.00 0.00 0.00 99 1021.3
20240612105156 43 245 0.0 0.0 0.00 0.00 0.00 99 1021.0
20240612104655 43 245 0.0 0.0 0.00 0.00 0.00 99 1021.0
20240612104153 43 245 0.0 0.0 0.00 0.00 0.00 99 1021.3
20240612103653 43 245 0.0 0.0 0.00 0.00 0.00 99 1021.0
20240612103153 42 240 0.0 0.0 0.00 0.00 0.00 99 1020.9
20240612102652 42 239 0.0 0.0 0.00 0.00 0.00 99 1020.9
20240612102152 42 239 0.0 0.0 0.00 0.00 0.00 99 1021.0
20240612101650 41 238 0.0 0.0 0.00 0.00 0.00 99 1020.9
20240612101150 41 238 0.0 0.0 0.00 0.00 0.00 99 1020.8
20240612100648 42 238 0.0 0.0 0.00 0.00 0.00 99 1020.8
20240612100148 42 238 0.0 0.0 0.00 0.00 0.00 99 1021.0
20240612095647 42 238 0.0 0.0 0.00 0.00 0.00 99 1020.8
20240612095145 42 238 0.0 0.0 0.00 0.00 0.00 99 1021.0
20240612094645 42 238 0.0 0.0 0.00 0.00 0.00 99 1020.7
20240612094144 42 238 0.0 0.0 0.00 0.00 0.00 99 1020.6
20240612093643 42 238 0.0 0.0 0.00 0.00 0.00 99 1020.5
20240612093143 42 237 0.0 0.0 0.00 0.00 0.00 99 1020.3
20240612092641 42 237 0.0 0.0 0.00 0.00 0.00 99 1020.5
20240612092139 42 237 0.0 0.0 0.00 0.00 0.00 99 1020.5
20240612091638 42 238 0.0 0.0 0.00 0.00 0.00 99 1020.5
20240612091137 43 238 0.0 0.0 0.00 0.00 0.00 99 1020.3
20240612090635 43 237 0.0 0.0 0.00 0.00 0.00 99 1020.1
20240612090134 43 237 0.0 0.0 0.00 0.00 0.00 99 1020.1
20240612085631 43 238 0.0 0.0 0.00 0.00 0.00 99 1020.3
20240612085131 43 237 0.0 0.0 0.00 0.00 0.00 99 1020.2
20240612084630 43 238 0.0 0.0 0.00 0.00 0.00 99 1020.1
20240612084128 43 237 0.0 0.0 0.00 0.00 0.00 99 1019.8
20240612083628 43 237 0.0 0.0 0.00 0.00 0.00 99 1020.0
20240612083126 43 238 0.0 0.0 0.00 0.00 0.00 99 1020.0
20240612082624 44 237 0.0 0.0 0.00 0.00 0.00 99 1020.0
20240612082124 43 236 0.0 0.0 0.00 0.00 0.00 99 1020.0
20240612081623 44 236 0.0 0.0 0.00 0.00 0.00 99 1020.1
20240612081122 44 239 0.0 0.0 0.00 0.00 0.00 99 1020.1
20240612080620 44 239 0.0 0.0 0.00 0.00 0.00 99 1019.9
20240612080118 44 239 0.0 0.0 0.00 0.00 0.00 99 1019.9
20240612075617 44 239 0.0 0.0 0.00 0.00 0.00 99 1019.9
20240612075116 44 239 0.0 0.0 0.00 0.00 0.00 99 1019.9
20240612074614 44 234 0.0 0.0 0.00 0.00 0.00 99 1020.1
20240612074113 44 237 0.0 0.0 0.00 0.00 0.00 99 1020.1
20240612073608 44 243 0.0 0.0 0.00 0.00 0.00 99 1020.0
20240612073108 45 238 0.0 0.0 0.00 0.00 0.00 99 1019.7
20240612072608 45 234 0.0 0.0 0.00 0.00 0.00 99 1020.0
20240612072106 44 243 0.0 0.0 0.00 0.00 0.00 99 1020.0
20240612071604 44 243 0.0 0.0 0.00 0.00 0.00 99 1019.7
20240612071104 44 243 0.0 0.0 0.00 0.00 0.00 99 1019.9
20240612070603 45 245 0.0 0.0 0.00 0.00 0.00 99 1019.7
20240612070102 45 232 0.0 0.0 0.00 0.00 0.00 99 1019.6
20240612065600 45 232 0.0 0.0 0.00 0.00 0.00 99 1019.4
20240612065058 45 232 0.0 0.0 0.00 0.00 0.00 99 1019.4
20240612064557 44 232 0.0 0.0 0.00 0.00 0.00 99 1019.9
20240612064056 44 232 0.0 0.0 0.00 0.00 0.00 99 1019.9
20240612063556 45 232 0.0 0.0 0.00 0.00 0.00 99 1019.6
20240612063054 44 232 0.0 0.0 0.00 0.00 0.00 99 1019.7
20240612062551 44 232 0.0 0.0 0.00 0.00 0.00 99 1019.9
20240612062050 44 232 0.0 0.0 0.00 0.00 0.00 99 1019.9
20240612061547 45 232 0.0 0.0 0.00 0.00 0.00 99 1019.9
20240612061046 44 232 0.0 0.0 0.00 0.00 0.00 99 1019.9
20240612060545 45 232 0.0 0.0 0.00 0.00 0.00 99 1020.0
20240612060044 45 232 0.0 0.0 0.00 0.00 0.00 99 1019.9
20240612055543 45 232 0.0 0.0 0.00 0.00 0.00 99 1020.0
20240612055041 45 232 0.0 0.0 0.00 0.00 0.00 99 1019.8
20240612054540 45 232 0.0 0.0 0.00 0.00 0.00 99 1019.7
20240612054037 45 232 0.0 0.0 0.00 0.00 0.00 99 1019.7
20240612053536 45 232 0.0 0.0 0.00 0.00 0.00 99 1019.5
20240612053034 46 232 0.0 0.0 0.00 0.00 0.00 99 1020.0
20240612052533 46 232 0.0 0.0 0.00 0.00 0.00 99 1019.8
20240612052032 46 232 0.0 0.0 0.00 0.00 0.00 99 1019.8
20240612051531 46 232 0.0 0.0 0.00 0.00 0.00 99 1020.0
20240612051028 46 232 0.0 0.0 0.00 0.00 0.00 99 1020.0
20240612050527 46 232 0.0 0.0 0.00 0.00 0.00 99 1019.9
20240612050024 47 232 0.0 0.0 0.00 0.00 0.00 99 1019.7
20240612045524 47 232 0.0 0.0 0.00 0.00 0.00 99 1019.8
20240612045022 47 232 0.0 0.0 0.00 0.00 0.00 99 1019.8
20240612044521 47 232 0.0 0.0 0.00 0.00 0.00 99 1019.9
20240612044019 47 232 0.0 0.0 0.00 0.00 0.00 99 1019.7
20240612043518 47 232 0.0 0.0 0.00 0.00 0.00 99 1019.9
20240612043016 48 232 0.0 0.0 0.00 0.00 0.00 99 1019.7
20240612042516 48 232 0.0 0.0 0.00 0.00 0.00 99 1019.7
20240612042015 48 232 0.0 0.0 0.00 0.00 0.00 99 1019.7
20240612041512 48 233 0.0 0.0 0.00 0.00 0.00 99 1019.9
20240612041012 48 233 0.0 0.0 0.00 0.00 0.00 99 1019.7
20240612040510 48 228 0.0 0.0 0.00 0.00 0.00 99 1019.8
20240612040010 48 234 0.0 0.0 0.00 0.00 0.00 99 1019.8
20240612035505 48 234 0.0 0.0 0.00 0.00 0.00 98 1019.7
20240612035003 48 235 0.0 0.0 0.00 0.00 0.00 98 1020.0
20240612034502 48 241 0.0 0.0 0.00 0.00 0.00 98 1019.7
20240612034001 49 234 0.0 0.0 0.00 0.00 0.00 98 1019.7
20240612033500 49 234 0.0 0.0 0.00 0.00 0.00 97 1019.6
20240612032958 49 234 0.0 0.0 0.00 0.00 0.00 97 1019.9
20240612032457 49 234 0.0 0.0 0.00 0.00 0.00 96 1019.6
20240612031955 50 234 0.0 0.0 0.00 0.00 0.00 96 1019.4
20240612031454 50 234 0.0 0.0 0.00 0.00 0.00 96 1019.2
20240612030952 50 234 0.0 0.0 0.00 0.00 0.00 95 1019.5
20240612030452 50 235 0.0 0.0 0.00 0.00 0.00 95 1019.0
20240612025950 51 238 0.0 0.0 0.00 0.00 0.00 95 1019.4
20240612025449 51 239 0.0 0.0 0.00 0.00 0.00 95 1019.5
20240612024948 51 239 0.0 0.0 0.00 0.00 0.00 95 1019.6
20240612024446 51 228 0.0 0.0 0.00 0.00 0.00 94 1019.4
20240612023945 51 244 0.0 0.0 0.00 0.00 0.00 94 1019.2
20240612023444 51 244 0.0 0.0 0.00 0.00 0.00 93 1019.4
20240612022944 51 244 0.0 0.0 0.00 0.00 0.00 92 1019.1
20240612022443 52 228 0.0 0.0 0.00 0.00 0.00 91 1019.2
20240612021942 53 228 0.0 0.0 0.00 0.00 0.00 91 1019.2
20240612021441 53 228 0.0 0.0 0.00 0.00 0.00 90 1019.1
20240612020940 53 227 0.0 0.0 0.00 0.00 0.00 90 1019.1
20240612020440 53 229 0.0 0.0 0.00 0.00 0.00 90 1019.1
20240612015939 53 224 0.0 0.0 0.00 0.00 0.00 90 1019.0
20240612015437 54 230 0.0 0.0 0.00 0.00 0.00 89 1019.1
20240612014936 54 230 0.0 0.0 0.00 0.00 0.00 88 1019.0
20240612014434 54 231 0.0 0.0 0.00 0.00 0.00 88 1018.9
20240612013933 54 236 0.0 0.0 0.00 0.00 0.00 88 1018.9
20240612013432 55 236 0.0 0.0 0.00 0.00 0.00 87 1018.7
20240612012930 55 232 0.0 0.0 0.00 0.00 0.00 86 1018.6
20240612012427 56 236 0.0 0.0 0.00 0.00 0.00 85 1018.6
20240612011927 56 235 0.0 0.0 0.00 0.00 0.00 85 1018.6
20240612011425 57 230 0.0 0.0 0.00 0.00 0.00 83 1018.7
20240612010923 57 244 0.0 0.0 0.00 0.00 0.00 83 1018.6
20240612010421 57 244 0.0 0.0 0.00 0.00 0.00 82 1018.6
20240612005920 58 244 0.0 0.0 0.00 0.00 0.00 79 1018.3
20240612005417 59 244 0.0 0.0 0.00 0.00 0.00 78 1018.3
20240612004915 59 244 0.0 0.0 0.00 0.00 0.00 76 1018.4
20240612004413 59 244 0.0 0.0 0.00 0.00 0.00 75 1018.3
20240612003913 60 244 0.0 0.0 0.00 0.00 0.00 74 1018.1
20240612003412 60 244 0.0 0.0 0.00 0.00 0.00 76 1018.1
20240612002910 61 243 0.0 0.0 0.00 0.00 0.00 74 1018.2
20240612002408 63 245 0.0 0.0 0.00 0.00 0.00 70 1018.1
20240612001906 64 240 0.0 0.0 0.00 0.00 0.00 65 1017.7
20240612001405 64 250 1.0 2.0 0.00 0.00 0.00 65 1018.0
20240612000904 64 252 1.0 2.0 0.00 0.00 0.00 65 1018.2
20240612000338 64 320 3.0 3.0 0.00 0.00 0.00 66 1017.9
20240611235836 65 275 4.0 5.0 0.00 0.00 0.00 63 1017.8
20240611235334 65 351 3.0 3.0 0.00 0.00 0.00 62 1017.9
20240611234832 65 247 1.0 1.0 0.00 0.00 0.00 63 1017.8
20240611234331 65 276 1.0 2.0 0.00 0.00 0.00 63 1017.9
20240611233831 64 277 2.0 2.0 0.00 0.00 0.00 65 1017.8
20240611233330 63 262 2.0 2.0 0.00 0.00 0.00 65 1017.4
20240611232827 64 260 2.0 3.0 0.00 0.00 0.00 66 1017.7
20240611232325 65 292 5.0 6.0 0.00 0.00 0.00 60 1017.7
20240611231825 66 303 5.0 6.0 0.00 0.00 0.00 60 1017.7
20240611231323 67 283 3.0 3.0 0.00 0.00 0.00 57 1017.3
20240611230823 67 245 3.0 3.0 0.00 0.00 0.00 59 1017.3
20240611230320 67 266 1.0 2.0 0.00 0.00 0.00 57 1017.4
20240611225819 66 313 5.0 6.0 0.00 0.00 0.00 58 1017.3
20240611225318 67 253 5.0 6.0 0.00 0.00 0.00 60 1017.2
20240611224818 68 330 4.0 5.0 0.00 0.00 0.00 58 1017.1
20240611224313 69 285 3.0 3.0 0.00 0.00 0.00 56 1017.0
20240611223812 68 247 1.0 1.0 0.00 0.00 0.00 58 1017.2
20240611223258 67 313 3.0 3.0 0.00 0.00 0.00 59 1017.2
20240611222757 65 256 1.0 1.0 0.00 0.00 0.00 61 1017.2
20240611222255 64 255 4.0 5.0 0.00 0.00 0.00 64 1017.3
20240611221754 66 272 6.0 7.0 0.00 0.00 0.00 61 1017.2
20240611221254 67 306 5.0 7.0 0.00 0.00 0.00 57 1017.3
20240611220753 67 253 6.0 7.0 0.00 0.00 0.00 58 1017.0
20240611220251 67 254 3.0 3.0 0.00 0.00 0.00 58 1017.0
20240611215752 68 292 7.0 7.0 0.00 0.00 0.00 57 1017.0
20240611215251 67 249 1.0 2.0 0.00 0.00 0.00 58 1016.9
20240611214749 67 257 4.0 5.0 0.00 0.00 0.00 60 1016.9
20240611214248 67 25 5.0 7.0 0.00 0.00 0.00 58 1016.9
20240611213747 67 305 3.0 5.0 0.00 0.00 0.00 60 1017.2
20240611213245 67 294 3.0 5.0 0.00 0.00 0.00 57 1017.1
20240611212743 68 271 5.0 6.0 0.00 0.00 0.00 56 1017.1
20240611212242 68 249 0.0 1.0 0.00 0.00 0.00 55 1017.1
20240611211741 68 250 2.0 2.0 0.00 0.00 0.00 58 1017.0
20240611211240 66 312 1.0 1.0 0.00 0.00 0.00 60 1017.1
20240611210738 67 298 8.0 10.0 0.00 0.00 0.00 58 1017.0
20240611210237 68 311 6.0 8.0 0.00 0.00 0.00 58 1016.9
20240611205735 68 259 1.0 2.0 0.00 0.00 0.00 55 1016.9
20240611205233 69 279 3.0 3.0 0.00 0.00 0.00 55 1017.1
20240611204732 67 321 4.0 6.0 0.00 0.00 0.00 57 1016.8
20240611204230 67 272 4.0 6.0 0.00 0.00 0.00 60 1016.9
20240611203729 68 293 4.0 6.0 0.00 0.00 0.00 57 1017.1
20240611203227 67 256 0.0 1.0 0.00 0.00 0.00 54 1016.9
20240611202725 67 283 4.0 6.0 0.00 0.00 0.00 57 1016.9
20240611202223 67 261 4.0 5.0 0.00 0.00 0.00 60 1016.9
20240611201722 69 258 2.0 2.0 0.00 0.00 0.00 62 1016.8
20240611201219 66 197 3.0 3.0 0.00 0.00 0.00 60 1017.0
20240611200719 66 267 3.0 5.0 0.00 0.00 0.00 62 1016.9
20240611200217 66 350 7.0 8.0 0.00 0.00 0.00 62 1017.1
20240611195715 66 297 10.0 14.0 0.00 0.00 0.00 61 1017.0
20240611195213 67 257 2.0 3.0 0.00 0.00 0.00 58 1017.0
20240611194711 66 9 2.0 3.0 0.00 0.00 0.00 62 1017.2
20240611194212 66 352 2.0 2.0 0.00 0.00 0.00 58 1017.4
20240611193711 66 288 3.0 3.0 0.00 0.00 0.00 61 1017.2
20240611193209 65 252 3.0 3.0 0.00 0.00 0.00 60 1017.2
20240611192705 65 256 2.0 3.0 0.00 0.00 0.00 60 1016.9
20240611192203 64 221 1.0 1.0 0.00 0.00 0.00 64 1017.4
20240611191702 65 260 8.0 9.0 0.00 0.00 0.00 64 1017.2
20240611191200 66 247 5.0 6.0 0.00 0.00 0.00 66 1017.2